createdAt,value
2023-04-13T00:01:11.229Z,97239.00
2023-04-13T00:03:39.118Z,97233.00
2023-04-13T00:06:06.401Z,97230.00
2023-04-13T00:08:35.783Z,97229.00
2023-04-13T00:11:04.169Z,97221.00
2023-04-13T00:13:30.884Z,97219.00
2023-04-13T00:15:57.364Z,97221.00
2023-04-13T00:18:24.029Z,97225.00
2023-04-13T00:20:50.582Z,97221.00
2023-04-13T00:23:18.012Z,97214.00
2023-04-13T00:25:44.552Z,97213.00
2023-04-13T00:28:11.945Z,97220.00
2023-04-13T00:30:38.528Z,97225.00
2023-04-13T00:33:05.164Z,97217.00
2023-04-13T00:35:31.945Z,97217.00
2023-04-13T00:37:58.895Z,97216.00
2023-04-13T00:40:25.437Z,97216.00
2023-04-13T00:42:53.194Z,97215.00
2023-04-13T00:45:19.917Z,97217.00
2023-04-13T00:47:48.528Z,97218.00
2023-04-13T00:50:18.874Z,97214.00
2023-04-13T00:52:46.239Z,97199.00
2023-04-13T00:55:12.883Z,97204.00
2023-04-13T00:57:40.533Z,97194.00
2023-04-13T01:00:09.378Z,97192.00
2023-04-13T01:02:37.058Z,97196.00
2023-04-13T01:05:06.145Z,97198.00
2023-04-13T01:07:48.240Z,97199.00
2023-04-13T01:10:18.597Z,97193.00
2023-04-13T01:13:20.629Z,97187.00
2023-04-13T01:16:02.436Z,97194.00
2023-04-13T01:18:33.231Z,97177.00
2023-04-13T01:21:02.252Z,97175.00
2023-04-13T01:23:56.479Z,97175.00
2023-04-13T01:26:33.258Z,97178.00
2023-04-13T01:29:00.380Z,97175.00
2023-04-13T01:31:27.123Z,97177.00
2023-04-13T01:33:53.914Z,97186.00
2023-04-13T01:36:20.989Z,97173.00
2023-04-13T01:38:47.538Z,97182.00
2023-04-13T01:41:15.572Z,97184.00
2023-04-13T01:43:45.207Z,97181.00
2023-04-13T01:46:14.307Z,97179.00
2023-04-13T01:49:02.649Z,97187.00
2023-04-13T01:51:45.234Z,97180.00
2023-04-13T01:54:20.612Z,97187.00
2023-04-13T01:56:48.691Z,97172.00
2023-04-13T01:59:19.286Z,97171.00
2023-04-13T02:01:45.988Z,97170.00
2023-04-13T02:04:13.958Z,97173.00
2023-04-13T02:06:42.639Z,97183.00
2023-04-13T02:09:10.017Z,97176.00
2023-04-13T02:11:37.220Z,97178.00
2023-04-13T02:14:05.302Z,97183.00
2023-04-13T02:16:33.052Z,97187.00
2023-04-13T02:19:00.009Z,97191.00
2023-04-13T02:21:26.683Z,97189.00
2023-04-13T02:23:53.361Z,97197.00
2023-04-13T02:26:21.883Z,97185.00
2023-04-13T02:28:51.056Z,97171.00
2023-04-13T02:31:20.301Z,97183.00
2023-04-13T02:33:47.215Z,97172.00
2023-04-13T02:36:13.870Z,97170.00
2023-04-13T02:38:53.112Z,97165.00
2023-04-13T02:41:25.795Z,97176.00
2023-04-13T02:43:52.560Z,97165.00
2023-04-13T02:46:22.925Z,97174.00
2023-04-13T02:48:55.047Z,97174.00
2023-04-13T02:51:22.008Z,97158.00
2023-04-13T02:53:49.141Z,97163.00
2023-04-13T02:56:16.031Z,97175.00
2023-04-13T02:58:42.848Z,97175.00
2023-04-13T03:01:16.575Z,97155.00
2023-04-13T03:03:43.104Z,97177.00
2023-04-13T03:06:10.252Z,97169.00
2023-04-13T03:08:46.381Z,97172.00
2023-04-13T03:11:23.449Z,97185.00
2023-04-13T03:13:58.438Z,97192.00
2023-04-13T03:16:25.517Z,97195.00
2023-04-13T03:18:52.181Z,97201.00
2023-04-13T03:21:19.142Z,97195.00
2023-04-13T03:24:18.089Z,97201.00
2023-04-13T03:26:45.149Z,97213.00
2023-04-13T03:29:16.204Z,97224.00
2023-04-13T03:31:45.404Z,97211.00
2023-04-13T03:34:12.373Z,97219.00
2023-04-13T03:36:42.085Z,97228.00
2023-04-13T03:39:09.830Z,97224.00
2023-04-13T03:41:38.146Z,97224.00
2023-04-13T03:44:05.042Z,97227.00
2023-04-13T03:46:33.186Z,97228.00
2023-04-13T03:49:07.511Z,97229.00
2023-04-13T03:51:34.803Z,97236.00
2023-04-13T03:54:01.647Z,97236.00
2023-04-13T03:56:28.418Z,97229.00
2023-04-13T03:58:56.394Z,97234.00
2023-04-13T04:01:27.051Z,97230.00
2023-04-13T04:03:57.301Z,97238.00
2023-04-13T04:06:27.351Z,97233.00
2023-04-13T04:09:06.714Z,97225.00
2023-04-13T04:11:44.618Z,97235.00
2023-04-13T04:14:12.326Z,97230.00
2023-04-13T04:16:47.154Z,97228.00
2023-04-13T04:19:16.401Z,97229.00
2023-04-13T04:21:46.746Z,97223.00
2023-04-13T04:24:22.457Z,97217.00
2023-04-13T04:26:54.904Z,97224.00
2023-04-13T04:29:22.777Z,97219.00
2023-04-13T04:31:55.949Z,97215.00
2023-04-13T04:34:23.699Z,97227.00
2023-04-13T04:36:51.948Z,97240.00
2023-04-13T04:39:22.643Z,97243.00
2023-04-13T04:42:03.718Z,97256.00
2023-04-13T04:44:31.422Z,97258.00
2023-04-13T04:47:04.147Z,97269.00
2023-04-13T04:49:34.581Z,97254.00
2023-04-13T04:52:03.838Z,97264.00
2023-04-13T04:54:30.500Z,97270.00
2023-04-13T04:56:58.192Z,97281.00
2023-04-13T04:59:25.708Z,97280.00
2023-04-13T05:01:58.669Z,97272.00
2023-04-13T05:04:25.528Z,97291.00
2023-04-13T05:06:52.716Z,97291.00
2023-04-13T05:09:23.063Z,97283.00
2023-04-13T05:11:56.318Z,97291.00
2023-04-13T05:14:22.827Z,97301.00
2023-04-13T05:16:50.385Z,97293.00
2023-04-13T05:19:31.077Z,97299.00
2023-04-13T05:22:03.770Z,97308.00
2023-04-13T05:24:36.821Z,97308.00
2023-04-13T05:27:09.868Z,97317.00
2023-04-13T05:29:36.509Z,97312.00
2023-04-13T05:32:03.646Z,97307.00
2023-04-13T05:34:32.645Z,97314.00
2023-04-13T05:37:06.124Z,97310.00
2023-04-13T05:39:32.607Z,97304.00
2023-04-13T05:41:59.225Z,97309.00
2023-04-13T05:44:28.124Z,97306.00
2023-04-13T05:46:55.127Z,97307.00
2023-04-13T05:49:21.744Z,97316.00
2023-04-13T05:51:48.912Z,97323.00
2023-04-13T05:54:17.408Z,97320.00
2023-04-13T05:56:47.686Z,97315.00
2023-04-13T05:59:15.371Z,97319.00
2023-04-13T06:01:42.191Z,97329.00
2023-04-13T06:04:09.561Z,97330.00
2023-04-13T06:06:36.224Z,97339.00
2023-04-13T06:09:05.329Z,97342.00
2023-04-13T06:11:31.848Z,97344.00
2023-04-13T06:14:00.236Z,97354.00
2023-04-13T06:16:26.977Z,97344.00
2023-04-13T06:18:54.472Z,97350.00
2023-04-13T06:21:21.067Z,97350.00
2023-04-13T06:23:47.595Z,97354.00
2023-04-13T06:26:25.000Z,97349.00
2023-04-13T06:28:55.111Z,97346.00
2023-04-13T06:31:23.340Z,97362.00
2023-04-13T06:33:51.592Z,97358.00
2023-04-13T06:36:23.981Z,97361.00
2023-04-13T06:38:52.252Z,97355.00
2023-04-13T06:41:19.969Z,97357.00
2023-04-13T06:43:48.648Z,97358.00
2023-04-13T06:46:32.897Z,97363.00
2023-04-13T06:49:06.404Z,97362.00
2023-04-13T06:51:33.943Z,97365.00
2023-04-13T06:54:00.924Z,97372.00
2023-04-13T06:56:27.536Z,97374.00
2023-04-13T06:59:00.797Z,97370.00
2023-04-13T07:01:28.952Z,97373.00
2023-04-13T07:03:56.746Z,97373.00
2023-04-13T07:06:24.141Z,97370.00
2023-04-13T07:08:52.451Z,97382.00
2023-04-13T07:11:19.116Z,97379.00
2023-04-13T07:13:46.692Z,97377.00
2023-04-13T07:16:14.523Z,97385.00
2023-04-13T07:18:44.706Z,97391.00
2023-04-13T07:21:11.640Z,97387.00
2023-04-13T07:23:58.458Z,97385.00
2023-04-13T07:26:24.989Z,97395.00
2023-04-13T07:28:51.646Z,97402.00
2023-04-13T07:31:19.511Z,97397.00
2023-04-13T07:33:49.307Z,97391.00
2023-04-13T07:36:20.997Z,97405.00
2023-04-13T07:38:51.224Z,97410.00
2023-04-13T07:41:22.077Z,97418.00
2023-04-13T07:43:51.964Z,97420.00
2023-04-13T07:46:20.272Z,97423.00
2023-04-13T07:48:49.276Z,97426.00
2023-04-13T07:51:23.229Z,97421.00
2023-04-13T07:53:52.240Z,97433.00
2023-04-13T07:56:19.453Z,97435.00
2023-04-13T07:58:46.206Z,97438.00
2023-04-13T08:01:13.147Z,97439.00
2023-04-13T08:03:39.832Z,97449.00
2023-04-13T08:06:13.714Z,97447.00
2023-04-13T08:08:40.481Z,97457.00
2023-04-13T08:11:08.652Z,97449.00
2023-04-13T08:13:35.833Z,97457.00
2023-04-13T08:16:02.885Z,97460.00
2023-04-13T08:18:32.155Z,97461.00
2023-04-13T08:20:59.427Z,97465.00
2023-04-13T08:23:29.649Z,97468.00
2023-04-13T08:25:57.545Z,97471.00
2023-04-13T08:28:24.069Z,97462.00
2023-04-13T08:30:50.856Z,97464.00
2023-04-13T08:33:17.473Z,97462.00
2023-04-13T08:35:44.071Z,97458.00
2023-04-13T08:38:12.568Z,97458.00
2023-04-13T08:40:43.854Z,97458.00
2023-04-13T08:43:15.641Z,97455.00
2023-04-13T08:45:42.704Z,97455.00
2023-04-13T08:48:14.760Z,97463.00
2023-04-13T08:50:43.258Z,97455.00
2023-04-13T08:53:10.538Z,97457.00
2023-04-13T08:55:47.905Z,97469.00
2023-04-13T08:58:22.682Z,97475.00
2023-04-13T09:00:50.828Z,97470.00
2023-04-13T09:03:24.094Z,97483.00
2023-04-13T09:06:00.012Z,97483.00
2023-04-13T09:08:34.580Z,97486.00
2023-04-13T09:11:03.501Z,97479.00
2023-04-13T09:13:30.139Z,97478.00
2023-04-13T09:15:57.213Z,97482.00
2023-04-13T09:18:33.707Z,97478.00
2023-04-13T09:21:06.056Z,97485.00
2023-04-13T09:23:32.608Z,97479.00
2023-04-13T09:26:09.058Z,97479.00
2023-04-13T09:28:46.779Z,97487.00
2023-04-13T09:31:13.842Z,97490.00
2023-04-13T09:33:45.981Z,97495.00
2023-04-13T09:36:14.007Z,97486.00
2023-04-13T09:38:40.492Z,97488.00
2023-04-13T09:41:07.838Z,97489.00
2023-04-13T09:43:36.611Z,97487.00
2023-04-13T09:46:03.999Z,97496.00
2023-04-13T09:48:31.023Z,97476.00
2023-04-13T09:51:02.088Z,97488.00
2023-04-13T09:53:39.400Z,97486.00
2023-04-13T09:56:05.997Z,97485.00
2023-04-13T09:58:32.481Z,97501.00
2023-04-13T10:01:00.352Z,97502.00
2023-04-13T10:03:27.787Z,97497.00
2023-04-13T10:05:58.674Z,97503.00
2023-04-13T10:08:37.178Z,97516.00
2023-04-13T10:11:10.131Z,97521.00
2023-04-13T10:13:49.631Z,97520.00
2023-04-13T10:16:30.233Z,97522.00
2023-04-13T10:19:02.372Z,97516.00
2023-04-13T10:21:35.219Z,97519.00
2023-04-13T10:26:37.774Z,97529.00
2023-04-13T10:29:05.122Z,97539.00
2023-04-13T10:31:46.590Z,97541.00
2023-04-13T10:34:24.191Z,97547.00
2023-04-13T10:36:54.079Z,97536.00
2023-04-13T10:39:32.355Z,97541.00
2023-04-13T10:42:09.578Z,97541.00
2023-04-13T10:44:51.095Z,97527.00
2023-04-13T10:47:22.007Z,97538.00
2023-04-13T10:49:49.780Z,97533.00
2023-04-13T10:52:16.924Z,97534.00
2023-04-13T10:54:44.510Z,97533.00
2023-04-13T10:57:12.042Z,97517.00
2023-04-13T10:59:57.202Z,97514.00
2023-04-13T11:02:29.474Z,97500.00
2023-04-13T11:04:56.920Z,97502.00
2023-04-13T11:07:25.412Z,97501.00
2023-04-13T11:10:02.817Z,97509.00
2023-04-13T11:12:30.024Z,97509.00
2023-04-13T11:14:56.581Z,97509.00
2023-04-13T11:17:23.386Z,97490.00
2023-04-13T11:19:54.293Z,97496.00
2023-04-13T11:22:28.822Z,97491.00
2023-04-13T11:25:08.001Z,97496.00
2023-04-13T11:27:35.195Z,97497.00
2023-04-13T11:30:07.437Z,97495.00
2023-04-13T11:32:34.270Z,97495.00
2023-04-13T11:35:12.000Z,97509.00
2023-04-13T11:37:43.107Z,97511.00
2023-04-13T11:40:21.371Z,97521.00
2023-04-13T11:42:50.401Z,97524.00
2023-04-13T11:45:19.067Z,97537.00
2023-04-13T11:47:48.250Z,97533.00
2023-04-13T11:50:16.432Z,97536.00
2023-04-13T11:52:46.405Z,97525.00
2023-04-13T11:55:22.599Z,97519.00
2023-04-13T11:57:50.260Z,97509.00
2023-04-13T12:00:19.932Z,97515.00
2023-04-13T12:03:00.431Z,97502.00
2023-04-13T12:05:31.255Z,97517.00
2023-04-13T12:07:59.303Z,97520.00
2023-04-13T12:10:40.252Z,97523.00
2023-04-13T12:16:04.993Z,97510.00
2023-04-13T12:18:37.475Z,97505.00
2023-04-13T12:21:05.931Z,97504.00
2023-04-13T12:23:33.058Z,97495.00
2023-04-13T12:26:25.994Z,97502.00
2023-04-13T12:28:59.020Z,97509.00
2023-04-13T12:31:33.803Z,97502.00
2023-04-13T12:34:00.684Z,97514.00
2023-04-13T12:36:31.474Z,97501.00
2023-04-13T12:38:59.431Z,97512.00
2023-04-13T12:41:26.650Z,97502.00
2023-04-13T12:43:53.597Z,97499.00
2023-04-13T12:46:20.561Z,97487.00
2023-04-13T12:48:47.177Z,97483.00
2023-04-13T12:51:13.662Z,97486.00
2023-04-13T12:53:40.236Z,97465.00
2023-04-13T12:56:07.361Z,97471.00
2023-04-13T12:58:35.438Z,97464.00
2023-04-13T13:01:02.820Z,97466.00
2023-04-13T13:03:29.571Z,97467.00
2023-04-13T13:05:56.279Z,97481.00
2023-04-13T13:08:22.856Z,97476.00
2023-04-13T13:10:49.542Z,97482.00
2023-04-13T13:13:18.545Z,97477.00
2023-04-13T13:15:45.018Z,97470.00
2023-04-13T13:18:12.630Z,97475.00
2023-04-13T13:20:41.366Z,97469.00
2023-04-13T13:23:12.379Z,97482.00
2023-04-13T13:25:42.406Z,97485.00
2023-04-13T13:28:16.078Z,97484.00
2023-04-13T13:30:43.028Z,97481.00
2023-04-13T13:33:09.668Z,97483.00
2023-04-13T13:35:36.250Z,97476.00
2023-04-13T13:38:03.317Z,97479.00
2023-04-13T13:40:29.874Z,97494.00
2023-04-13T13:42:56.684Z,97486.00
2023-04-13T13:45:23.922Z,97482.00
2023-04-13T13:47:55.776Z,97474.00
2023-04-13T13:50:31.234Z,97471.00
2023-04-13T13:53:04.309Z,97468.00
2023-04-13T13:55:37.068Z,97468.00
2023-04-13T13:58:03.604Z,97471.00
2023-04-13T14:00:31.105Z,97473.00
2023-04-13T14:02:58.107Z,97472.00
2023-04-13T14:05:24.736Z,97469.00
2023-04-13T14:07:51.407Z,97473.00
2023-04-13T14:10:17.951Z,97480.00
2023-04-13T14:12:49.616Z,97485.00
2023-04-13T14:15:17.498Z,97486.00
2023-04-13T14:17:46.741Z,97487.00
2023-04-13T14:20:17.110Z,97483.00
2023-04-13T14:22:43.646Z,97480.00
2023-04-13T14:25:10.586Z,97476.00
2023-04-13T14:27:37.812Z,97480.00
2023-04-13T14:30:05.225Z,97481.00
2023-04-13T14:32:32.417Z,97484.00
2023-04-13T14:35:00.284Z,97479.00
2023-04-13T14:37:27.853Z,97495.00
2023-04-13T14:39:55.354Z,97491.00
2023-04-13T14:42:24.182Z,97493.00
2023-04-13T14:44:51.764Z,97478.00
2023-04-13T14:47:19.112Z,97480.00
2023-04-13T14:49:47.207Z,97492.00
2023-04-13T14:52:14.298Z,97499.00
2023-04-13T14:54:41.013Z,97509.00
2023-04-13T14:57:07.491Z,97517.00
2023-04-13T14:59:33.968Z,97514.00
2023-04-13T15:02:01.180Z,97513.00
2023-04-13T15:04:28.151Z,97515.00
2023-04-13T15:06:55.377Z,97512.00
2023-04-13T15:09:22.497Z,97516.00
2023-04-13T15:11:50.836Z,97521.00
2023-04-13T15:14:17.566Z,97537.00
2023-04-13T15:16:44.128Z,97534.00
2023-04-13T15:19:10.696Z,97538.00
2023-04-13T15:21:37.211Z,97531.00
2023-04-13T15:24:04.097Z,97525.00
2023-04-13T15:26:31.175Z,97523.00
2023-04-13T15:28:58.156Z,97526.00
2023-04-13T15:31:24.978Z,97533.00
2023-04-13T15:33:51.812Z,97529.00
2023-04-13T15:36:18.948Z,97533.00
2023-04-13T15:38:45.510Z,97549.00
2023-04-13T15:41:11.977Z,97540.00
2023-04-13T15:43:38.586Z,97534.00
2023-04-13T15:46:05.213Z,97537.00
2023-04-13T15:48:31.873Z,97549.00
2023-04-13T15:50:59.800Z,97555.00
2023-04-13T15:53:27.256Z,97553.00
2023-04-13T15:55:53.953Z,97557.00
2023-04-13T15:58:20.480Z,97561.00
2023-04-13T16:00:47.106Z,97563.00
2023-04-13T16:03:13.668Z,97557.00
2023-04-13T16:05:40.292Z,97558.00
2023-04-13T16:08:07.952Z,97562.00
2023-04-13T16:10:34.624Z,97569.00
2023-04-13T16:13:02.641Z,97567.00
2023-04-13T16:15:29.319Z,97567.00
2023-04-13T16:17:56.939Z,97575.00
2023-04-13T16:20:28.243Z,97575.00
2023-04-13T16:22:59.167Z,97575.00
2023-04-13T16:25:25.840Z,97573.00
2023-04-13T16:27:54.172Z,97575.00
2023-04-13T16:30:21.877Z,97572.00
2023-04-13T16:32:49.604Z,97576.00
2023-04-13T16:35:16.279Z,97575.00
2023-04-13T16:37:42.935Z,97566.00
2023-04-13T16:40:10.852Z,97577.00
2023-04-13T16:42:38.945Z,97571.00
2023-04-13T16:45:07.248Z,97577.00
2023-04-13T16:47:33.838Z,97581.00
2023-04-13T16:50:00.583Z,97591.00
2023-04-13T16:52:27.057Z,97594.00
2023-04-13T16:54:53.535Z,97599.00
2023-04-13T16:57:19.973Z,97604.00
2023-04-13T16:59:47.027Z,97598.00
2023-04-13T17:02:30.130Z,97592.00
2023-04-13T17:04:57.866Z,97595.00
2023-04-13T17:07:26.711Z,97599.00
2023-04-13T17:09:53.373Z,97594.00
2023-04-13T17:12:21.578Z,97611.00
2023-04-13T17:14:49.838Z,97608.00
2023-04-13T17:17:16.502Z,97610.00
2023-04-13T17:19:43.058Z,97610.00
2023-04-13T17:22:09.651Z,97625.00
2023-04-13T17:24:36.707Z,97626.00
2023-04-13T17:27:03.173Z,97618.00
2023-04-13T17:29:29.663Z,97623.00
2023-04-13T17:31:56.527Z,97620.00
2023-04-13T17:34:23.024Z,97618.00
2023-04-13T17:36:49.627Z,97621.00
2023-04-13T17:39:16.120Z,97624.00
2023-04-13T17:41:43.281Z,97628.00
2023-04-13T17:44:09.974Z,97636.00
2023-04-13T17:46:36.606Z,97635.00
2023-04-13T17:49:03.225Z,97638.00
2023-04-13T17:51:30.756Z,97635.00
2023-04-13T17:53:57.279Z,97644.00
2023-04-13T17:56:23.745Z,97643.00
2023-04-13T17:58:50.379Z,97648.00
2023-04-13T18:01:16.944Z,97646.00
2023-04-13T18:03:43.782Z,97640.00
2023-04-13T18:06:10.560Z,97638.00
2023-04-13T18:08:37.016Z,97649.00
2023-04-13T18:11:03.642Z,97646.00
2023-04-13T18:13:31.421Z,97660.00
2023-04-13T18:15:58.039Z,97661.00
2023-04-13T18:18:25.053Z,97663.00
2023-04-13T18:20:52.360Z,97665.00
2023-04-13T18:23:22.113Z,97670.00
2023-04-13T18:25:49.598Z,97662.00
2023-04-13T18:28:17.322Z,97674.00
2023-04-13T18:30:46.541Z,97669.00
2023-04-13T18:33:13.190Z,97680.00
2023-04-13T18:35:46.154Z,97684.00
2023-04-13T18:38:12.716Z,97684.00
2023-04-13T18:40:40.291Z,97691.00
2023-04-13T18:43:06.836Z,97689.00
2023-04-13T18:45:33.634Z,97695.00
2023-04-13T18:48:00.409Z,97700.00
2023-04-13T18:50:27.028Z,97712.00
2023-04-13T18:52:53.583Z,97711.00
2023-04-13T18:55:20.225Z,97709.00
2023-04-13T18:57:46.873Z,97703.00
2023-04-13T19:00:13.973Z,97710.00
2023-04-13T19:02:42.103Z,97711.00
2023-04-13T19:05:10.124Z,97705.00
2023-04-13T19:07:39.111Z,97703.00
2023-04-13T19:10:06.535Z,97707.00
2023-04-13T19:12:33.027Z,97716.00
2023-04-13T19:14:59.535Z,97714.00
2023-04-13T19:17:29.416Z,97715.00
2023-04-13T19:19:56.789Z,97718.00
2023-04-13T19:22:23.240Z,97720.00
2023-04-13T19:24:49.681Z,97723.00
2023-04-13T19:27:16.273Z,97729.00
2023-04-13T19:29:42.707Z,97734.00
2023-04-13T19:32:12.369Z,97731.00
2023-04-13T19:34:38.987Z,97739.00
2023-04-13T19:37:05.551Z,97733.00
2023-04-13T19:39:32.190Z,97731.00
2023-04-13T19:41:58.713Z,97732.00
2023-04-13T19:44:25.982Z,97730.00
2023-04-13T19:46:52.487Z,97743.00
2023-04-13T19:49:18.994Z,97751.00
2023-04-13T19:51:46.212Z,97755.00
2023-04-13T19:54:13.511Z,97752.00
2023-04-13T19:56:40.521Z,97756.00
2023-04-13T19:59:07.083Z,97749.00
2023-04-13T20:01:34.337Z,97754.00
2023-04-13T20:04:03.771Z,97750.00
2023-04-13T20:06:33.029Z,97741.00
2023-04-13T20:09:08.840Z,97744.00
2023-04-13T20:11:35.754Z,97742.00
2023-04-13T20:14:02.674Z,97744.00
2023-04-13T20:16:29.147Z,97743.00
2023-04-13T20:18:55.695Z,97748.00
2023-04-13T20:21:22.182Z,97755.00
2023-04-13T20:23:48.658Z,97746.00
2023-04-13T20:26:15.489Z,97742.00
2023-04-13T20:28:41.962Z,97741.00
2023-04-13T20:31:08.552Z,97743.00
2023-04-13T20:33:35.202Z,97741.00
2023-04-13T20:36:03.213Z,97735.00
2023-04-13T20:38:30.002Z,97726.00
2023-04-13T20:40:57.112Z,97737.00
2023-04-13T20:43:24.189Z,97740.00
2023-04-13T20:45:51.544Z,97744.00
2023-04-13T20:50:48.058Z,97743.00
2023-04-13T20:53:14.946Z,97751.00
2023-04-13T20:55:42.152Z,97752.00
2023-04-13T20:58:10.675Z,97748.00
2023-04-13T21:00:38.262Z,97747.00
2023-04-13T21:03:08.810Z,97745.00
2023-04-13T21:05:36.184Z,97743.00
2023-04-13T21:08:02.832Z,97747.00
2023-04-13T21:10:29.297Z,97746.00
2023-04-13T21:12:55.838Z,97742.00
2023-04-13T21:15:22.315Z,97744.00
2023-04-13T21:17:48.989Z,97743.00
2023-04-13T21:20:15.603Z,97736.00
2023-04-13T21:22:42.101Z,97742.00
2023-04-13T21:25:08.845Z,97746.00
2023-04-13T21:27:35.522Z,97745.00
2023-04-13T21:30:02.226Z,97751.00
2023-04-13T21:32:28.815Z,97746.00
2023-04-13T21:34:57.424Z,97752.00
2023-04-13T21:37:24.005Z,97748.00
2023-04-13T21:39:50.507Z,97750.00
2023-04-13T21:42:17.114Z,97745.00
2023-04-13T21:44:43.734Z,97751.00
2023-04-13T21:47:10.344Z,97754.00
2023-04-13T21:49:36.818Z,97755.00
2023-04-13T21:52:03.450Z,97748.00
2023-04-13T21:54:29.978Z,97757.00
2023-04-13T21:56:56.473Z,97767.00
2023-04-13T21:59:27.165Z,97760.00
2023-04-13T22:01:54.610Z,97767.00
2023-04-13T22:04:21.328Z,97751.00
2023-04-13T22:06:48.160Z,97761.00
2023-04-13T22:09:14.658Z,97759.00
2023-04-13T22:11:41.406Z,97766.00
2023-04-13T22:14:07.947Z,97770.00
2023-04-13T22:16:34.507Z,97773.00
2023-04-13T22:19:01.254Z,97777.00
2023-04-13T22:21:28.744Z,97774.00
2023-04-13T22:23:55.386Z,97781.00
2023-04-13T22:26:21.957Z,97778.00
2023-04-13T22:28:48.472Z,97773.00
2023-04-13T22:31:16.681Z,97773.00
2023-04-13T22:33:43.190Z,97766.00
2023-04-13T22:36:19.355Z,97778.00
2023-04-13T22:38:46.854Z,97769.00
2023-04-13T22:41:13.352Z,97761.00
2023-04-13T22:43:39.918Z,97765.00
2023-04-13T22:46:06.426Z,97773.00
2023-04-13T22:48:32.926Z,97776.00
2023-04-13T22:51:03.625Z,97781.00
2023-04-13T22:53:30.611Z,97769.00
2023-04-13T22:55:57.291Z,97783.00
2023-04-13T22:58:23.931Z,97778.00
2023-04-13T23:00:50.386Z,97770.00
2023-04-13T23:03:17.053Z,97779.00
2023-04-13T23:05:43.653Z,97765.00
2023-04-13T23:08:10.566Z,97778.00
2023-04-13T23:10:37.315Z,97770.00
2023-04-13T23:13:04.660Z,97771.00
2023-04-13T23:15:31.128Z,97772.00
2023-04-13T23:17:57.731Z,97765.00
2023-04-13T23:20:24.298Z,97769.00
2023-04-13T23:22:51.052Z,97773.00
2023-04-13T23:25:17.548Z,97774.00
2023-04-13T23:27:44.116Z,97783.00
2023-04-13T23:30:11.164Z,97783.00
2023-04-13T23:32:37.800Z,97774.00
2023-04-13T23:35:05.283Z,97776.00
2023-04-13T23:37:31.898Z,97782.00
2023-04-13T23:39:58.531Z,97784.00
2023-04-13T23:42:24.998Z,97788.00
2023-04-13T23:44:51.579Z,97783.00
2023-04-13T23:47:18.208Z,97782.00
2023-04-13T23:49:46.754Z,97780.00
2023-04-13T23:52:13.210Z,97772.00
2023-04-13T23:54:39.671Z,97775.00
2023-04-13T23:57:06.126Z,97782.00
2023-04-13T23:59:32.610Z,97782.00
